sensor_id;sensor_type;location;lat;lon;timestamp;P1;durP1;ratioP1;P2;durP2;ratioP2
50495;SDS011;38806;51.554;5.704;2022-07-25T00:01:59;14.13;;;12.30;;
50495;SDS011;38806;51.554;5.704;2022-07-25T00:04:00;15.60;;;11.60;;
50495;SDS011;38806;51.554;5.704;2022-07-25T00:06:00;15.68;;;11.88;;
50495;SDS011;38806;51.554;5.704;2022-07-25T00:08:00;18.80;;;12.68;;
50495;SDS011;38806;51.554;5.704;2022-07-25T00:10:01;20.15;;;14.07;;
50495;SDS011;38806;51.554;5.704;2022-07-25T00:12:01;20.00;;;16.83;;
50495;SDS011;38806;51.554;5.704;2022-07-25T00:14:01;20.92;;;14.93;;
50495;SDS011;38806;51.554;5.704;2022-07-25T00:16:02;18.13;;;14.20;;
50495;SDS011;38806;51.554;5.704;2022-07-25T00:18:02;18.33;;;12.15;;
50495;SDS011;38806;51.554;5.704;2022-07-25T00:20:03;20.58;;;14.63;;
50495;SDS011;38806;51.554;5.704;2022-07-25T00:22:04;21.45;;;15.07;;
50495;SDS011;38806;51.554;5.704;2022-07-25T00:24:05;22.35;;;15.25;;
50495;SDS011;38806;51.554;5.704;2022-07-25T00:26:05;18.60;;;14.68;;
50495;SDS011;38806;51.554;5.704;2022-07-25T00:28:06;18.10;;;13.20;;
50495;SDS011;38806;51.554;5.704;2022-07-25T00:30:06;20.98;;;16.05;;
50495;SDS011;38806;51.554;5.704;2022-07-25T00:32:07;17.80;;;13.88;;
50495;SDS011;38806;51.554;5.704;2022-07-25T00:34:07;19.25;;;14.68;;
50495;SDS011;38806;51.554;5.704;2022-07-25T00:36:07;17.70;;;14.23;;
50495;SDS011;38806;51.554;5.704;2022-07-25T00:38:08;21.05;;;15.27;;
50495;SDS011;38806;51.554;5.704;2022-07-25T00:40:08;19.75;;;14.95;;
50495;SDS011;38806;51.554;5.704;2022-07-25T00:42:09;19.33;;;14.63;;
50495;SDS011;38806;51.554;5.704;2022-07-25T00:44:20;19.80;;;14.98;;
50495;SDS011;38806;51.554;5.704;2022-07-25T00:46:24;19.10;;;15.07;;
50495;SDS011;38806;51.554;5.704;2022-07-25T00:48:25;18.83;;;16.52;;
50495;SDS011;38806;51.554;5.704;2022-07-25T00:50:26;19.83;;;15.63;;
50495;SDS011;38806;51.554;5.704;2022-07-25T00:52:26;20.98;;;15.45;;
50495;SDS011;38806;51.554;5.704;2022-07-25T00:54:27;19.92;;;16.38;;
50495;SDS011;38806;51.554;5.704;2022-07-25T00:56:27;22.90;;;16.40;;
50495;SDS011;38806;51.554;5.704;2022-07-25T00:58:28;22.75;;;17.15;;
50495;SDS011;38806;51.554;5.704;2022-07-25T01:00:29;24.88;;;18.02;;
50495;SDS011;38806;51.554;5.704;2022-07-25T01:02:29;23.75;;;16.92;;
50495;SDS011;38806;51.554;5.704;2022-07-25T01:04:29;22.17;;;17.55;;
50495;SDS011;38806;51.554;5.704;2022-07-25T01:06:30;19.63;;;16.02;;
50495;SDS011;38806;51.554;5.704;2022-07-25T01:08:31;22.65;;;17.63;;
50495;SDS011;38806;51.554;5.704;2022-07-25T01:10:31;21.70;;;16.70;;
50495;SDS011;38806;51.554;5.704;2022-07-25T01:12:42;21.13;;;17.40;;
50495;SDS011;38806;51.554;5.704;2022-07-25T01:14:53;23.77;;;16.40;;
50495;SDS011;38806;51.554;5.704;2022-07-25T01:16:53;23.17;;;18.13;;
50495;SDS011;38806;51.554;5.704;2022-07-25T01:18:53;19.35;;;15.02;;
50495;SDS011;38806;51.554;5.704;2022-07-25T01:20:53;26.13;;;20.02;;
50495;SDS011;38806;51.554;5.704;2022-07-25T01:22:54;20.77;;;15.85;;
50495;SDS011;38806;51.554;5.704;2022-07-25T01:24:54;25.60;;;18.60;;
50495;SDS011;38806;51.554;5.704;2022-07-25T01:26:55;22.83;;;17.42;;
50495;SDS011;38806;51.554;5.704;2022-07-25T01:28:55;20.75;;;16.60;;
50495;SDS011;38806;51.554;5.704;2022-07-25T01:30:56;21.73;;;17.70;;
50495;SDS011;38806;51.554;5.704;2022-07-25T01:32:56;18.73;;;15.00;;
50495;SDS011;38806;51.554;5.704;2022-07-25T01:34:56;20.65;;;16.17;;
50495;SDS011;38806;51.554;5.704;2022-07-25T01:36:57;21.40;;;16.17;;
50495;SDS011;38806;51.554;5.704;2022-07-25T01:38:57;24.85;;;18.92;;
50495;SDS011;38806;51.554;5.704;2022-07-25T01:40:57;22.30;;;16.35;;
50495;SDS011;38806;51.554;5.704;2022-07-25T01:42:57;21.55;;;16.70;;
50495;SDS011;38806;51.554;5.704;2022-07-25T01:44:58;21.98;;;16.35;;
50495;SDS011;38806;51.554;5.704;2022-07-25T01:46:58;25.17;;;19.85;;
50495;SDS011;38806;51.554;5.704;2022-07-25T01:48:58;20.45;;;16.67;;
50495;SDS011;38806;51.554;5.704;2022-07-25T01:50:59;20.55;;;17.35;;
50495;SDS011;38806;51.554;5.704;2022-07-25T01:52:59;21.92;;;18.20;;
50495;SDS011;38806;51.554;5.704;2022-07-25T01:54:59;22.38;;;17.48;;
50495;SDS011;38806;51.554;5.704;2022-07-25T01:57:00;22.05;;;15.57;;
50495;SDS011;38806;51.554;5.704;2022-07-25T01:59:00;27.00;;;19.27;;
50495;SDS011;38806;51.554;5.704;2022-07-25T02:01:00;21.25;;;16.70;;
50495;SDS011;38806;51.554;5.704;2022-07-25T02:03:00;20.63;;;16.25;;
50495;SDS011;38806;51.554;5.704;2022-07-25T02:05:19;22.73;;;17.92;;
50495;SDS011;38806;51.554;5.704;2022-07-25T02:07:19;23.10;;;17.02;;
50495;SDS011;38806;51.554;5.704;2022-07-25T02:09:20;22.33;;;17.40;;
50495;SDS011;38806;51.554;5.704;2022-07-25T02:11:20;21.77;;;17.38;;
50495;SDS011;38806;51.554;5.704;2022-07-25T02:13:20;23.92;;;16.30;;
50495;SDS011;38806;51.554;5.704;2022-07-25T02:15:21;21.08;;;16.33;;
50495;SDS011;38806;51.554;5.704;2022-07-25T02:17:21;22.13;;;17.55;;
50495;SDS011;38806;51.554;5.704;2022-07-25T02:19:22;23.00;;;17.80;;
50495;SDS011;38806;51.554;5.704;2022-07-25T02:21:22;23.95;;;16.75;;
50495;SDS011;38806;51.554;5.704;2022-07-25T02:23:22;24.80;;;17.50;;
50495;SDS011;38806;51.554;5.704;2022-07-25T02:25:23;25.48;;;19.02;;
50495;SDS011;38806;51.554;5.704;2022-07-25T02:27:23;26.50;;;19.30;;
50495;SDS011;38806;51.554;5.704;2022-07-25T02:29:23;26.85;;;18.42;;
50495;SDS011;38806;51.554;5.704;2022-07-25T02:31:23;26.25;;;17.05;;
50495;SDS011;38806;51.554;5.704;2022-07-25T02:33:24;26.83;;;19.55;;
50495;SDS011;38806;51.554;5.704;2022-07-25T02:35:24;27.02;;;19.63;;
50495;SDS011;38806;51.554;5.704;2022-07-25T02:37:24;24.13;;;17.90;;
50495;SDS011;38806;51.554;5.704;2022-07-25T02:39:25;22.48;;;16.08;;
50495;SDS011;38806;51.554;5.704;2022-07-25T02:41:25;21.67;;;15.70;;
50495;SDS011;38806;51.554;5.704;2022-07-25T02:43:25;23.67;;;16.88;;
50495;SDS011;38806;51.554;5.704;2022-07-25T02:45:26;23.02;;;17.02;;
50495;SDS011;38806;51.554;5.704;2022-07-25T02:47:26;20.92;;;15.82;;
50495;SDS011;38806;51.554;5.704;2022-07-25T02:49:27;26.20;;;16.67;;
50495;SDS011;38806;51.554;5.704;2022-07-25T02:51:27;22.92;;;17.20;;
50495;SDS011;38806;51.554;5.704;2022-07-25T02:53:28;23.08;;;15.90;;
50495;SDS011;38806;51.554;5.704;2022-07-25T02:55:28;23.58;;;16.27;;
50495;SDS011;38806;51.554;5.704;2022-07-25T02:57:28;25.58;;;17.02;;
50495;SDS011;38806;51.554;5.704;2022-07-25T02:59:29;21.48;;;15.77;;
50495;SDS011;38806;51.554;5.704;2022-07-25T03:01:29;22.92;;;16.70;;
50495;SDS011;38806;51.554;5.704;2022-07-25T03:03:29;18.65;;;15.02;;
50495;SDS011;38806;51.554;5.704;2022-07-25T03:05:30;21.48;;;15.23;;
50495;SDS011;38806;51.554;5.704;2022-07-25T03:07:30;18.80;;;14.32;;
50495;SDS011;38806;51.554;5.704;2022-07-25T03:09:30;22.25;;;15.73;;
50495;SDS011;38806;51.554;5.704;2022-07-25T03:11:31;21.15;;;15.63;;
50495;SDS011;38806;51.554;5.704;2022-07-25T03:13:32;24.08;;;16.40;;
50495;SDS011;38806;51.554;5.704;2022-07-25T03:15:33;19.77;;;15.00;;
50495;SDS011;38806;51.554;5.704;2022-07-25T03:17:33;20.17;;;15.77;;
50495;SDS011;38806;51.554;5.704;2022-07-25T03:19:33;21.25;;;14.70;;
50495;SDS011;38806;51.554;5.704;2022-07-25T03:21:33;21.05;;;15.88;;
50495;SDS011;38806;51.554;5.704;2022-07-25T03:23:34;20.45;;;14.38;;
50495;SDS011;38806;51.554;5.704;2022-07-25T03:25:34;18.45;;;14.95;;
50495;SDS011;38806;51.554;5.704;2022-07-25T03:27:34;20.85;;;15.48;;
50495;SDS011;38806;51.554;5.704;2022-07-25T03:29:34;18.42;;;15.88;;
50495;SDS011;38806;51.554;5.704;2022-07-25T03:31:35;16.92;;;14.23;;
50495;SDS011;38806;51.554;5.704;2022-07-25T03:33:35;19.50;;;13.73;;
50495;SDS011;38806;51.554;5.704;2022-07-25T03:35:36;19.25;;;13.77;;
50495;SDS011;38806;51.554;5.704;2022-07-25T03:37:36;20.30;;;14.95;;
50495;SDS011;38806;51.554;5.704;2022-07-25T03:39:37;22.45;;;14.52;;
50495;SDS011;38806;51.554;5.704;2022-07-25T03:41:37;21.85;;;14.63;;
50495;SDS011;38806;51.554;5.704;2022-07-25T03:43:37;20.33;;;15.10;;
50495;SDS011;38806;51.554;5.704;2022-07-25T03:45:37;18.40;;;13.80;;
50495;SDS011;38806;51.554;5.704;2022-07-25T03:47:38;20.25;;;14.00;;
50495;SDS011;38806;51.554;5.704;2022-07-25T03:49:38;20.40;;;13.27;;
50495;SDS011;38806;51.554;5.704;2022-07-25T03:51:38;18.25;;;13.15;;
50495;SDS011;38806;51.554;5.704;2022-07-25T03:53:39;20.35;;;14.23;;
50495;SDS011;38806;51.554;5.704;2022-07-25T03:55:59;18.35;;;13.70;;
50495;SDS011;38806;51.554;5.704;2022-07-25T03:58:00;22.67;;;14.25;;
50495;SDS011;38806;51.554;5.704;2022-07-25T04:00:00;20.33;;;13.55;;
50495;SDS011;38806;51.554;5.704;2022-07-25T04:02:00;22.38;;;15.57;;
50495;SDS011;38806;51.554;5.704;2022-07-25T04:04:01;17.80;;;14.65;;
50495;SDS011;38806;51.554;5.704;2022-07-25T04:06:01;22.00;;;16.27;;
50495;SDS011;38806;51.554;5.704;2022-07-25T04:08:01;19.60;;;13.90;;
50495;SDS011;38806;51.554;5.704;2022-07-25T04:10:05;21.90;;;13.82;;
50495;SDS011;38806;51.554;5.704;2022-07-25T04:12:06;21.08;;;14.25;;
50495;SDS011;38806;51.554;5.704;2022-07-25T04:14:06;19.70;;;13.35;;
50495;SDS011;38806;51.554;5.704;2022-07-25T04:16:07;20.08;;;13.40;;
50495;SDS011;38806;51.554;5.704;2022-07-25T04:18:07;19.52;;;12.02;;
50495;SDS011;38806;51.554;5.704;2022-07-25T04:20:08;15.60;;;11.82;;
50495;SDS011;38806;51.554;5.704;2022-07-25T04:22:09;18.08;;;12.23;;
50495;SDS011;38806;51.554;5.704;2022-07-25T04:24:09;16.63;;;13.55;;
50495;SDS011;38806;51.554;5.704;2022-07-25T04:26:09;17.70;;;13.00;;
50495;SDS011;38806;51.554;5.704;2022-07-25T04:28:10;19.73;;;13.65;;
50495;SDS011;38806;51.554;5.704;2022-07-25T04:30:10;19.90;;;13.52;;
50495;SDS011;38806;51.554;5.704;2022-07-25T04:32:10;20.40;;;15.20;;
50495;SDS011;38806;51.554;5.704;2022-07-25T04:34:12;17.55;;;12.88;;
50495;SDS011;38806;51.554;5.704;2022-07-25T04:36:12;17.35;;;12.70;;
50495;SDS011;38806;51.554;5.704;2022-07-25T04:38:13;18.15;;;13.40;;
50495;SDS011;38806;51.554;5.704;2022-07-25T04:40:13;20.05;;;13.05;;
50495;SDS011;38806;51.554;5.704;2022-07-25T04:42:13;17.52;;;14.05;;
50495;SDS011;38806;51.554;5.704;2022-07-25T04:44:13;17.98;;;13.23;;
50495;SDS011;38806;51.554;5.704;2022-07-25T04:46:20;21.75;;;14.52;;
50495;SDS011;38806;51.554;5.704;2022-07-25T04:48:22;18.43;;;14.07;;
50495;SDS011;38806;51.554;5.704;2022-07-25T04:50:22;18.17;;;12.25;;
50495;SDS011;38806;51.554;5.704;2022-07-25T04:52:23;20.42;;;14.85;;
50495;SDS011;38806;51.554;5.704;2022-07-25T04:54:23;19.25;;;14.60;;
50495;SDS011;38806;51.554;5.704;2022-07-25T04:56:23;20.35;;;15.48;;
50495;SDS011;38806;51.554;5.704;2022-07-25T04:58:24;20.55;;;15.25;;
50495;SDS011;38806;51.554;5.704;2022-07-25T05:00:24;23.17;;;15.13;;
50495;SDS011;38806;51.554;5.704;2022-07-25T05:02:24;25.10;;;15.95;;
50495;SDS011;38806;51.554;5.704;2022-07-25T05:04:25;20.23;;;14.77;;
50495;SDS011;38806;51.554;5.704;2022-07-25T05:06:25;23.10;;;16.70;;
50495;SDS011;38806;51.554;5.704;2022-07-25T05:08:25;18.30;;;14.07;;
50495;SDS011;38806;51.554;5.704;2022-07-25T05:10:26;21.67;;;15.10;;
50495;SDS011;38806;51.554;5.704;2022-07-25T05:12:27;20.48;;;13.82;;
50495;SDS011;38806;51.554;5.704;2022-07-25T05:14:28;16.00;;;12.02;;
50495;SDS011;38806;51.554;5.704;2022-07-25T05:16:28;18.65;;;12.23;;
50495;SDS011;38806;51.554;5.704;2022-07-25T05:18:28;17.15;;;11.50;;
50495;SDS011;38806;51.554;5.704;2022-07-25T05:20:28;16.38;;;10.70;;
50495;SDS011;38806;51.554;5.704;2022-07-25T05:22:29;16.52;;;9.23;;
50495;SDS011;38806;51.554;5.704;2022-07-25T05:24:35;17.73;;;10.23;;
50495;SDS011;38806;51.554;5.704;2022-07-25T05:26:36;14.32;;;8.43;;
50495;SDS011;38806;51.554;5.704;2022-07-25T05:28:36;12.45;;;8.82;;
50495;SDS011;38806;51.554;5.704;2022-07-25T05:30:37;12.50;;;8.48;;
50495;SDS011;38806;51.554;5.704;2022-07-25T05:32:37;12.68;;;8.60;;
50495;SDS011;38806;51.554;5.704;2022-07-25T05:34:38;14.68;;;8.60;;
50495;SDS011;38806;51.554;5.704;2022-07-25T05:36:38;12.00;;;8.30;;
50495;SDS011;38806;51.554;5.704;2022-07-25T05:38:39;13.82;;;8.50;;
50495;SDS011;38806;51.554;5.704;2022-07-25T05:40:39;12.45;;;8.45;;
50495;SDS011;38806;51.554;5.704;2022-07-25T05:42:39;15.77;;;8.32;;
50495;SDS011;38806;51.554;5.704;2022-07-25T05:44:39;11.93;;;7.13;;
50495;SDS011;38806;51.554;5.704;2022-07-25T05:46:40;10.82;;;8.07;;
50495;SDS011;38806;51.554;5.704;2022-07-25T05:48:40;11.10;;;6.95;;
50495;SDS011;38806;51.554;5.704;2022-07-25T05:50:42;11.02;;;7.28;;
50495;SDS011;38806;51.554;5.704;2022-07-25T05:52:42;8.98;;;6.80;;
50495;SDS011;38806;51.554;5.704;2022-07-25T05:54:42;10.93;;;6.95;;
50495;SDS011;38806;51.554;5.704;2022-07-25T05:56:43;9.40;;;7.07;;
50495;SDS011;38806;51.554;5.704;2022-07-25T05:58:43;11.00;;;7.30;;
50495;SDS011;38806;51.554;5.704;2022-07-25T06:00:44;9.30;;;6.78;;
50495;SDS011;38806;51.554;5.704;2022-07-25T06:02:44;9.40;;;6.70;;
50495;SDS011;38806;51.554;5.704;2022-07-25T06:04:44;12.32;;;8.45;;
50495;SDS011;38806;51.554;5.704;2022-07-25T06:06:44;13.38;;;7.60;;
50495;SDS011;38806;51.554;5.704;2022-07-25T06:08:50;10.80;;;7.53;;
50495;SDS011;38806;51.554;5.704;2022-07-25T06:10:50;9.32;;;6.95;;
50495;SDS011;38806;51.554;5.704;2022-07-25T06:12:50;11.68;;;8.27;;
50495;SDS011;38806;51.554;5.704;2022-07-25T06:14:50;17.05;;;9.15;;
50495;SDS011;38806;51.554;5.704;2022-07-25T06:16:51;14.65;;;8.15;;
50495;SDS011;38806;51.554;5.704;2022-07-25T06:18:51;13.02;;;7.63;;
50495;SDS011;38806;51.554;5.704;2022-07-25T06:20:52;8.75;;;6.88;;
50495;SDS011;38806;51.554;5.704;2022-07-25T06:22:52;12.45;;;7.53;;
50495;SDS011;38806;51.554;5.704;2022-07-25T06:24:52;8.45;;;6.65;;
50495;SDS011;38806;51.554;5.704;2022-07-25T06:26:53;11.65;;;8.18;;
50495;SDS011;38806;51.554;5.704;2022-07-25T06:28:53;11.48;;;7.40;;
50495;SDS011;38806;51.554;5.704;2022-07-25T06:30:53;11.45;;;7.72;;
50495;SDS011;38806;51.554;5.704;2022-07-25T06:32:54;10.93;;;7.50;;
50495;SDS011;38806;51.554;5.704;2022-07-25T06:34:54;10.75;;;7.05;;
50495;SDS011;38806;51.554;5.704;2022-07-25T06:36:55;16.77;;;7.95;;
50495;SDS011;38806;51.554;5.704;2022-07-25T06:38:56;13.48;;;7.22;;
50495;SDS011;38806;51.554;5.704;2022-07-25T06:40:56;9.57;;;6.47;;
50495;SDS011;38806;51.554;5.704;2022-07-25T06:42:57;7.55;;;5.40;;
50495;SDS011;38806;51.554;5.704;2022-07-25T06:44:57;11.70;;;6.78;;
50495;SDS011;38806;51.554;5.704;2022-07-25T06:46:57;10.02;;;7.03;;
50495;SDS011;38806;51.554;5.704;2022-07-25T06:48:58;8.15;;;5.85;;
50495;SDS011;38806;51.554;5.704;2022-07-25T06:50:59;11.20;;;5.53;;
50495;SDS011;38806;51.554;5.704;2022-07-25T06:52:59;10.32;;;5.90;;
50495;SDS011;38806;51.554;5.704;2022-07-25T06:55:00;8.50;;;6.05;;
50495;SDS011;38806;51.554;5.704;2022-07-25T06:57:01;10.18;;;5.95;;
50495;SDS011;38806;51.554;5.704;2022-07-25T06:59:01;8.70;;;6.15;;
50495;SDS011;38806;51.554;5.704;2022-07-25T07:01:01;9.95;;;6.68;;
50495;SDS011;38806;51.554;5.704;2022-07-25T07:03:02;9.13;;;6.38;;
50495;SDS011;38806;51.554;5.704;2022-07-25T07:05:02;10.63;;;6.28;;
50495;SDS011;38806;51.554;5.704;2022-07-25T07:07:03;10.55;;;5.82;;
50495;SDS011;38806;51.554;5.704;2022-07-25T07:09:03;9.15;;;6.28;;
50495;SDS011;38806;51.554;5.704;2022-07-25T07:11:04;12.70;;;6.95;;
50495;SDS011;38806;51.554;5.704;2022-07-25T07:13:09;11.45;;;6.93;;
50495;SDS011;38806;51.554;5.704;2022-07-25T07:15:11;12.88;;;6.57;;
50495;SDS011;38806;51.554;5.704;2022-07-25T07:17:11;10.38;;;6.65;;
50495;SDS011;38806;51.554;5.704;2022-07-25T07:19:11;8.82;;;5.70;;
50495;SDS011;38806;51.554;5.704;2022-07-25T07:21:13;11.85;;;7.30;;
50495;SDS011;38806;51.554;5.704;2022-07-25T07:23:14;10.73;;;6.75;;
50495;SDS011;38806;51.554;5.704;2022-07-25T07:25:15;12.13;;;6.75;;
50495;SDS011;38806;51.554;5.704;2022-07-25T07:27:16;10.35;;;6.38;;
50495;SDS011;38806;51.554;5.704;2022-07-25T07:29:16;11.63;;;7.07;;
50495;SDS011;38806;51.554;5.704;2022-07-25T07:31:16;10.05;;;6.25;;
50495;SDS011;38806;51.554;5.704;2022-07-25T07:33:17;14.13;;;6.72;;
50495;SDS011;38806;51.554;5.704;2022-07-25T07:35:17;9.80;;;6.30;;
50495;SDS011;38806;51.554;5.704;2022-07-25T07:37:18;10.93;;;5.93;;
50495;SDS011;38806;51.554;5.704;2022-07-25T07:39:18;13.30;;;6.85;;
50495;SDS011;38806;51.554;5.704;2022-07-25T07:41:18;11.57;;;6.68;;
50495;SDS011;38806;51.554;5.704;2022-07-25T07:43:19;10.88;;;6.28;;
50495;SDS011;38806;51.554;5.704;2022-07-25T07:45:20;8.15;;;5.80;;
50495;SDS011;38806;51.554;5.704;2022-07-25T07:47:22;9.80;;;6.20;;
50495;SDS011;38806;51.554;5.704;2022-07-25T07:49:22;10.17;;;6.33;;
50495;SDS011;38806;51.554;5.704;2022-07-25T07:51:23;10.07;;;5.28;;
50495;SDS011;38806;51.554;5.704;2022-07-25T07:53:23;7.35;;;4.85;;
50495;SDS011;38806;51.554;5.704;2022-07-25T07:55:43;9.82;;;5.93;;
50495;SDS011;38806;51.554;5.704;2022-07-25T07:57:44;7.47;;;4.95;;
50495;SDS011;38806;51.554;5.704;2022-07-25T07:59:44;9.98;;;5.00;;
50495;SDS011;38806;51.554;5.704;2022-07-25T08:01:44;7.13;;;4.82;;
50495;SDS011;38806;51.554;5.704;2022-07-25T08:03:44;9.27;;;4.97;;
50495;SDS011;38806;51.554;5.704;2022-07-25T08:05:45;7.75;;;4.18;;
50495;SDS011;38806;51.554;5.704;2022-07-25T08:07:45;7.82;;;4.47;;
50495;SDS011;38806;51.554;5.704;2022-07-25T08:09:46;7.20;;;3.92;;
50495;SDS011;38806;51.554;5.704;2022-07-25T08:11:46;10.40;;;3.63;;
50495;SDS011;38806;51.554;5.704;2022-07-25T08:13:46;7.82;;;4.10;;
50495;SDS011;38806;51.554;5.704;2022-07-25T08:15:47;6.35;;;3.38;;
50495;SDS011;38806;51.554;5.704;2022-07-25T08:17:49;7.78;;;3.80;;
50495;SDS011;38806;51.554;5.704;2022-07-25T08:19:50;8.20;;;4.32;;
50495;SDS011;38806;51.554;5.704;2022-07-25T08:21:50;8.83;;;3.93;;
50495;SDS011;38806;51.554;5.704;2022-07-25T08:23:50;6.10;;;3.25;;
50495;SDS011;38806;51.554;5.704;2022-07-25T08:25:51;8.27;;;3.55;;
50495;SDS011;38806;51.554;5.704;2022-07-25T08:27:51;7.35;;;4.50;;
50495;SDS011;38806;51.554;5.704;2022-07-25T08:29:52;9.25;;;3.90;;
50495;SDS011;38806;51.554;5.704;2022-07-25T08:31:52;9.07;;;4.13;;
50495;SDS011;38806;51.554;5.704;2022-07-25T08:33:52;7.65;;;3.80;;
50495;SDS011;38806;51.554;5.704;2022-07-25T08:35:53;7.60;;;3.70;;
50495;SDS011;38806;51.554;5.704;2022-07-25T08:37:54;6.60;;;3.20;;
50495;SDS011;38806;51.554;5.704;2022-07-25T08:39:55;6.95;;;3.63;;
50495;SDS011;38806;51.554;5.704;2022-07-25T08:41:55;4.97;;;2.92;;
50495;SDS011;38806;51.554;5.704;2022-07-25T08:43:56;8.98;;;3.30;;
50495;SDS011;38806;51.554;5.704;2022-07-25T08:45:56;10.23;;;2.83;;
50495;SDS011;38806;51.554;5.704;2022-07-25T08:47:59;5.35;;;3.08;;
50495;SDS011;38806;51.554;5.704;2022-07-25T08:50:01;9.50;;;3.30;;
50495;SDS011;38806;51.554;5.704;2022-07-25T08:52:03;4.60;;;2.47;;
50495;SDS011;38806;51.554;5.704;2022-07-25T08:54:04;6.65;;;2.38;;
50495;SDS011;38806;51.554;5.704;2022-07-25T08:56:05;7.43;;;2.00;;
50495;SDS011;38806;51.554;5.704;2022-07-25T08:58:06;4.85;;;2.33;;
50495;SDS011;38806;51.554;5.704;2022-07-25T09:00:07;7.90;;;2.45;;
50495;SDS011;38806;51.554;5.704;2022-07-25T09:02:11;3.40;;;1.60;;
50495;SDS011;38806;51.554;5.704;2022-07-25T09:04:12;9.23;;;2.13;;
50495;SDS011;38806;51.554;5.704;2022-07-25T09:06:19;5.68;;;1.90;;
50495;SDS011;38806;51.554;5.704;2022-07-25T09:08:20;9.88;;;2.15;;
50495;SDS011;38806;51.554;5.704;2022-07-25T09:10:21;6.57;;;2.63;;
50495;SDS011;38806;51.554;5.704;2022-07-25T09:12:26;5.40;;;1.50;;
50495;SDS011;38806;51.554;5.704;2022-07-25T09:14:27;6.80;;;2.97;;
50495;SDS011;38806;51.554;5.704;2022-07-25T09:16:32;3.15;;;1.27;;
50495;SDS011;38806;51.554;5.704;2022-07-25T09:18:36;5.43;;;1.20;;
50495;SDS011;38806;51.554;5.704;2022-07-25T09:20:46;4.00;;;1.52;;
50495;SDS011;38806;51.554;5.704;2022-07-25T09:22:52;7.03;;;2.03;;
50495;SDS011;38806;51.554;5.704;2022-07-25T09:24:52;4.00;;;1.20;;
50495;SDS011;38806;51.554;5.704;2022-07-25T09:26:53;3.78;;;1.55;;
50495;SDS011;38806;51.554;5.704;2022-07-25T09:28:56;9.65;;;3.25;;
50495;SDS011;38806;51.554;5.704;2022-07-25T09:30:58;6.15;;;1.52;;
50495;SDS011;38806;51.554;5.704;2022-07-25T09:32:59;6.38;;;1.70;;
50495;SDS011;38806;51.554;5.704;2022-07-25T09:35:00;3.20;;;1.02;;
50495;SDS011;38806;51.554;5.704;2022-07-25T09:37:09;3.85;;;1.58;;
50495;SDS011;38806;51.554;5.704;2022-07-25T09:39:13;6.15;;;2.00;;
50495;SDS011;38806;51.554;5.704;2022-07-25T09:41:14;3.30;;;1.08;;
50495;SDS011;38806;51.554;5.704;2022-07-25T09:43:14;3.83;;;1.40;;
50495;SDS011;38806;51.554;5.704;2022-07-25T09:45:14;6.57;;;2.00;;
50495;SDS011;38806;51.554;5.704;2022-07-25T09:47:15;6.55;;;2.20;;
50495;SDS011;38806;51.554;5.704;2022-07-25T09:49:15;6.05;;;1.35;;
50495;SDS011;38806;51.554;5.704;2022-07-25T09:51:15;2.50;;;1.20;;
50495;SDS011;38806;51.554;5.704;2022-07-25T09:53:16;6.65;;;1.85;;
50495;SDS011;38806;51.554;5.704;2022-07-25T09:55:17;3.97;;;1.60;;
50495;SDS011;38806;51.554;5.704;2022-07-25T09:57:20;3.33;;;1.25;;
50495;SDS011;38806;51.554;5.704;2022-07-25T09:59:24;3.65;;;1.73;;
50495;SDS011;38806;51.554;5.704;2022-07-25T10:01:26;7.78;;;1.50;;
50495;SDS011;38806;51.554;5.704;2022-07-25T10:03:51;6.80;;;2.15;;
50495;SDS011;38806;51.554;5.704;2022-07-25T10:08:37;4.80;;;1.80;;
50495;SDS011;38806;51.554;5.704;2022-07-25T10:10:39;4.32;;;1.80;;
50495;SDS011;38806;51.554;5.704;2022-07-25T10:12:40;7.40;;;1.90;;
50495;SDS011;38806;51.554;5.704;2022-07-25T10:14:41;4.32;;;2.00;;
50495;SDS011;38806;51.554;5.704;2022-07-25T10:16:45;4.18;;;1.73;;
50495;SDS011;38806;51.554;5.704;2022-07-25T10:18:46;3.50;;;1.42;;
50495;SDS011;38806;51.554;5.704;2022-07-25T10:20:55;5.00;;;1.98;;
50495;SDS011;38806;51.554;5.704;2022-07-25T10:25:22;4.72;;;2.20;;
50495;SDS011;38806;51.554;5.704;2022-07-25T10:27:22;5.95;;;2.05;;
50495;SDS011;38806;51.554;5.704;2022-07-25T10:29:31;5.97;;;2.15;;
50495;SDS011;38806;51.554;5.704;2022-07-25T10:31:36;6.97;;;2.03;;
50495;SDS011;38806;51.554;5.704;2022-07-25T10:33:41;6.05;;;2.88;;
50495;SDS011;38806;51.554;5.704;2022-07-25T10:35:42;5.72;;;2.17;;
50495;SDS011;38806;51.554;5.704;2022-07-25T10:37:43;4.45;;;2.25;;
50495;SDS011;38806;51.554;5.704;2022-07-25T10:39:45;9.55;;;3.53;;
50495;SDS011;38806;51.554;5.704;2022-07-25T10:41:51;6.68;;;2.17;;
50495;SDS011;38806;51.554;5.704;2022-07-25T10:43:58;8.32;;;2.83;;
50495;SDS011;38806;51.554;5.704;2022-07-25T10:46:00;3.70;;;2.08;;
50495;SDS011;38806;51.554;5.704;2022-07-25T10:48:04;5.13;;;2.03;;
50495;SDS011;38806;51.554;5.704;2022-07-25T10:50:09;10.15;;;2.92;;
50495;SDS011;38806;51.554;5.704;2022-07-25T10:52:13;4.03;;;2.05;;
50495;SDS011;38806;51.554;5.704;2022-07-25T10:54:15;5.05;;;2.65;;
50495;SDS011;38806;51.554;5.704;2022-07-25T10:56:17;3.90;;;1.80;;
50495;SDS011;38806;51.554;5.704;2022-07-25T10:58:19;10.32;;;2.58;;
50495;SDS011;38806;51.554;5.704;2022-07-25T11:00:20;3.47;;;1.85;;
50495;SDS011;38806;51.554;5.704;2022-07-25T11:02:22;4.30;;;1.93;;
50495;SDS011;38806;51.554;5.704;2022-07-25T11:04:23;7.25;;;2.40;;
50495;SDS011;38806;51.554;5.704;2022-07-25T11:08:33;5.75;;;2.63;;
50495;SDS011;38806;51.554;5.704;2022-07-25T11:10:34;6.90;;;2.35;;
50495;SDS011;38806;51.554;5.704;2022-07-25T11:12:35;4.55;;;2.17;;
50495;SDS011;38806;51.554;5.704;2022-07-25T11:14:38;5.63;;;2.10;;
50495;SDS011;38806;51.554;5.704;2022-07-25T11:16:41;6.07;;;2.85;;
50495;SDS011;38806;51.554;5.704;2022-07-25T11:18:41;5.35;;;2.53;;
50495;SDS011;38806;51.554;5.704;2022-07-25T11:20:42;5.32;;;2.25;;
50495;SDS011;38806;51.554;5.704;2022-07-25T11:22:42;7.30;;;2.55;;
50495;SDS011;38806;51.554;5.704;2022-07-25T11:24:49;5.45;;;2.42;;
50495;SDS011;38806;51.554;5.704;2022-07-25T11:26:52;4.93;;;2.72;;
50495;SDS011;38806;51.554;5.704;2022-07-25T11:28:52;5.53;;;2.25;;
50495;SDS011;38806;51.554;5.704;2022-07-25T11:30:52;6.93;;;2.08;;
50495;SDS011;38806;51.554;5.704;2022-07-25T11:33:02;8.07;;;2.40;;
50495;SDS011;38806;51.554;5.704;2022-07-25T11:35:03;5.80;;;3.03;;
50495;SDS011;38806;51.554;5.704;2022-07-25T11:37:04;7.90;;;2.67;;
50495;SDS011;38806;51.554;5.704;2022-07-25T11:39:06;6.88;;;2.90;;
50495;SDS011;38806;51.554;5.704;2022-07-25T11:41:06;4.72;;;2.08;;
50495;SDS011;38806;51.554;5.704;2022-07-25T11:43:07;6.13;;;3.17;;
50495;SDS011;38806;51.554;5.704;2022-07-25T11:45:22;7.72;;;3.00;;
50495;SDS011;38806;51.554;5.704;2022-07-25T11:47:25;9.15;;;3.97;;
50495;SDS011;38806;51.554;5.704;2022-07-25T11:49:28;6.85;;;2.67;;
50495;SDS011;38806;51.554;5.704;2022-07-25T11:51:34;4.15;;;2.80;;
50495;SDS011;38806;51.554;5.704;2022-07-25T11:53:40;6.93;;;3.72;;
50495;SDS011;38806;51.554;5.704;2022-07-25T11:55:42;6.28;;;3.35;;
50495;SDS011;38806;51.554;5.704;2022-07-25T11:57:44;5.88;;;3.13;;
50495;SDS011;38806;51.554;5.704;2022-07-25T11:59:45;10.25;;;4.65;;
50495;SDS011;38806;51.554;5.704;2022-07-25T12:01:46;7.10;;;4.38;;
50495;SDS011;38806;51.554;5.704;2022-07-25T12:03:46;7.22;;;4.35;;
50495;SDS011;38806;51.554;5.704;2022-07-25T12:05:49;8.70;;;4.25;;
50495;SDS011;38806;51.554;5.704;2022-07-25T12:07:50;5.93;;;4.28;;